sensor_id;sensor_type;location;lat;lon;timestamp;pressure;altitude;pressure_sealevel;temperature;humidity
7433;BME280;32233;49.500;7.764;2023-04-27T00:01:41;98606.78;;;2.34;96.74
7433;BME280;32233;49.500;7.764;2023-04-27T00:04:08;98606.53;;;2.27;99.16
7433;BME280;32233;49.500;7.764;2023-04-27T00:06:35;98615.25;;;2.45;100.00
7433;BME280;32233;49.500;7.764;2023-04-27T00:09:01;98609.63;;;2.13;100.00
7433;BME280;32233;49.500;7.764;2023-04-27T00:11:28;98605.13;;;2.05;100.00
7433;BME280;32233;49.500;7.764;2023-04-27T00:13:55;98595.66;;;2.32;100.00
7433;BME280;32233;49.500;7.764;2023-04-27T00:16:21;98598.41;;;2.03;100.00
7433;BME280;32233;49.500;7.764;2023-04-27T00:18:48;98593.34;;;2.01;100.00
7433;BME280;32233;49.500;7.764;2023-04-27T00:21:14;98600.66;;;1.88;100.00
7433;BME280;32233;49.500;7.764;2023-04-27T00:23:41;98599.19;;;2.13;100.00
7433;BME280;32233;49.500;7.764;2023-04-27T00:26:07;98599.63;;;2.36;100.00
7433;BME280;32233;49.500;7.764;2023-04-27T00:28:34;98600.00;;;2.13;100.00
7433;BME280;32233;49.500;7.764;2023-04-27T00:31:01;98603.81;;;1.82;100.00
7433;BME280;32233;49.500;7.764;2023-04-27T00:33:29;98604.09;;;1.79;100.00
7433;BME280;32233;49.500;7.764;2023-04-27T00:36:01;98606.69;;;1.88;100.00
7433;BME280;32233;49.500;7.764;2023-04-27T00:38:28;98606.47;;;2.09;100.00
7433;BME280;32233;49.500;7.764;2023-04-27T00:41:04;98603.81;;;2.19;100.00
7433;BME280;32233;49.500;7.764;2023-04-27T00:43:32;98601.22;;;1.82;100.00
7433;BME280;32233;49.500;7.764;2023-04-27T00:46:06;98600.72;;;1.68;100.00
7433;BME280;32233;49.500;7.764;2023-04-27T00:48:34;98596.38;;;1.87;100.00
7433;BME280;32233;49.500;7.764;2023-04-27T00:51:01;98597.41;;;1.66;100.00
7433;BME280;32233;49.500;7.764;2023-04-27T00:53:27;98586.75;;;1.60;100.00
7433;BME280;32233;49.500;7.764;2023-04-27T00:55:54;98584.41;;;1.57;100.00
7433;BME280;32233;49.500;7.764;2023-04-27T00:58:23;98591.41;;;1.46;100.00
7433;BME280;32233;49.500;7.764;2023-04-27T01:00:50;98586.75;;;1.50;100.00
7433;BME280;32233;49.500;7.764;2023-04-27T01:03:17;98593.34;;;1.44;100.00
7433;BME280;32233;49.500;7.764;2023-04-27T01:05:44;98592.78;;;1.51;100.00
7433;BME280;32233;49.500;7.764;2023-04-27T01:08:10;98591.03;;;1.32;100.00
7433;BME280;32233;49.500;7.764;2023-04-27T01:10:37;98590.28;;;1.68;100.00
7433;BME280;32233;49.500;7.764;2023-04-27T01:13:04;98596.03;;;1.62;100.00
7433;BME280;32233;49.500;7.764;2023-04-27T01:15:30;98596.28;;;1.79;100.00
7433;BME280;32233;49.500;7.764;2023-04-27T01:18:01;98597.22;;;1.87;100.00
7433;BME280;32233;49.500;7.764;2023-04-27T01:20:28;98601.06;;;1.93;100.00
7433;BME280;32233;49.500;7.764;2023-04-27T01:22:56;98605.69;;;1.42;100.00
7433;BME280;32233;49.500;7.764;2023-04-27T01:25:23;98595.81;;;1.56;100.00
7433;BME280;32233;49.500;7.764;2023-04-27T01:27:50;98590.00;;;1.71;100.00
7433;BME280;32233;49.500;7.764;2023-04-27T01:30:17;98595.09;;;1.63;100.00
7433;BME280;32233;49.500;7.764;2023-04-27T01:32:43;98597.41;;;1.66;100.00
7433;BME280;32233;49.500;7.764;2023-04-27T01:35:10;98593.88;;;1.67;100.00
7433;BME280;32233;49.500;7.764;2023-04-27T01:37:37;98593.34;;;1.91;100.00
7433;BME280;32233;49.500;7.764;2023-04-27T01:40:05;98596.66;;;1.93;100.00
7433;BME280;32233;49.500;7.764;2023-04-27T01:42:32;98599.91;;;1.95;100.00
7433;BME280;32233;49.500;7.764;2023-04-27T01:44:58;98599.06;;;2.42;100.00
7433;BME280;32233;49.500;7.764;2023-04-27T01:47:26;98603.03;;;2.36;100.00
7433;BME280;32233;49.500;7.764;2023-04-27T01:49:53;98601.81;;;2.13;100.00
7433;BME280;32233;49.500;7.764;2023-04-27T01:52:19;98600.13;;;2.12;100.00
7433;BME280;32233;49.500;7.764;2023-04-27T01:54:46;98595.78;;;2.12;100.00
7433;BME280;32233;49.500;7.764;2023-04-27T01:57:12;98602.34;;;2.07;100.00
7433;BME280;32233;49.500;7.764;2023-04-27T01:59:39;98600.31;;;2.38;100.00
7433;BME280;32233;49.500;7.764;2023-04-27T02:02:06;98607.00;;;2.68;99.00
7433;BME280;32233;49.500;7.764;2023-04-27T02:04:35;98603.94;;;2.72;97.43
7433;BME280;32233;49.500;7.764;2023-04-27T02:07:02;98611.03;;;2.62;98.88
7433;BME280;32233;49.500;7.764;2023-04-27T02:09:28;98613.09;;;2.59;98.97
7433;BME280;32233;49.500;7.764;2023-04-27T02:11:55;98612.66;;;2.63;100.00
7433;BME280;32233;49.500;7.764;2023-04-27T02:14:21;98617.88;;;2.36;100.00
7433;BME280;32233;49.500;7.764;2023-04-27T02:16:48;98612.22;;;2.40;100.00
7433;BME280;32233;49.500;7.764;2023-04-27T02:19:14;98614.78;;;2.50;100.00
7433;BME280;32233;49.500;7.764;2023-04-27T02:21:42;98613.97;;;2.50;99.93
7433;BME280;32233;49.500;7.764;2023-04-27T02:24:09;98614.50;;;1.88;100.00
7433;BME280;32233;49.500;7.764;2023-04-27T02:26:36;98616.34;;;1.59;100.00
7433;BME280;32233;49.500;7.764;2023-04-27T02:29:03;98614.28;;;1.62;100.00
7433;BME280;32233;49.500;7.764;2023-04-27T02:31:30;98612.19;;;1.85;100.00
7433;BME280;32233;49.500;7.764;2023-04-27T02:33:56;98620.13;;;1.93;100.00
7433;BME280;32233;49.500;7.764;2023-04-27T02:36:23;98621.25;;;1.81;100.00
7433;BME280;32233;49.500;7.764;2023-04-27T02:38:53;98625.50;;;1.82;100.00
7433;BME280;32233;49.500;7.764;2023-04-27T02:41:19;98622.53;;;1.67;100.00
7433;BME280;32233;49.500;7.764;2023-04-27T02:43:49;98624.41;;;1.85;100.00
7433;BME280;32233;49.500;7.764;2023-04-27T02:46:16;98630.03;;;1.80;100.00
7433;BME280;32233;49.500;7.764;2023-04-27T02:48:43;98624.53;;;1.83;100.00
7433;BME280;32233;49.500;7.764;2023-04-27T02:51:09;98620.22;;;2.02;100.00
7433;BME280;32233;49.500;7.764;2023-04-27T02:53:36;98624.31;;;2.41;100.00
7433;BME280;32233;49.500;7.764;2023-04-27T02:56:02;98626.22;;;2.49;100.00
7433;BME280;32233;49.500;7.764;2023-04-27T02:58:29;98620.94;;;2.59;100.00
7433;BME280;32233;49.500;7.764;2023-04-27T03:00:56;98619.38;;;2.66;100.00
7433;BME280;32233;49.500;7.764;2023-04-27T03:03:23;98627.06;;;2.67;100.00
7433;BME280;32233;49.500;7.764;2023-04-27T03:05:49;98622.84;;;2.57;100.00
7433;BME280;32233;49.500;7.764;2023-04-27T03:08:16;98617.50;;;2.58;100.00
7433;BME280;32233;49.500;7.764;2023-04-27T03:10:42;98624.97;;;2.71;99.34
7433;BME280;32233;49.500;7.764;2023-04-27T03:13:09;98620.09;;;2.86;98.42
7433;BME280;32233;49.500;7.764;2023-04-27T03:15:36;98610.41;;;2.68;99.51
7433;BME280;32233;49.500;7.764;2023-04-27T03:18:03;98614.25;;;2.46;100.00
7433;BME280;32233;49.500;7.764;2023-04-27T03:20:29;98615.09;;;2.47;100.00
7433;BME280;32233;49.500;7.764;2023-04-27T03:22:56;98607.53;;;2.71;100.00
7433;BME280;32233;49.500;7.764;2023-04-27T03:25:23;98608.78;;;2.85;100.00
7433;BME280;32233;49.500;7.764;2023-04-27T03:27:49;98607.69;;;2.70;100.00
7433;BME280;32233;49.500;7.764;2023-04-27T03:30:16;98603.31;;;2.61;100.00
7433;BME280;32233;49.500;7.764;2023-04-27T03:32:42;98602.19;;;2.45;100.00
7433;BME280;32233;49.500;7.764;2023-04-27T03:35:12;98610.03;;;2.45;100.00
7433;BME280;32233;49.500;7.764;2023-04-27T03:37:38;98597.09;;;2.44;100.00
7433;BME280;32233;49.500;7.764;2023-04-27T03:40:06;98610.94;;;2.27;100.00
7433;BME280;32233;49.500;7.764;2023-04-27T03:42:32;98610.53;;;2.21;100.00
7433;BME280;32233;49.500;7.764;2023-04-27T03:45:00;98612.31;;;2.48;100.00
7433;BME280;32233;49.500;7.764;2023-04-27T03:47:26;98616.53;;;2.59;100.00
7433;BME280;32233;49.500;7.764;2023-04-27T03:49:53;98621.09;;;2.75;100.00
7433;BME280;32233;49.500;7.764;2023-04-27T03:52:19;98621.09;;;2.93;100.00
7433;BME280;32233;49.500;7.764;2023-04-27T03:54:46;98625.50;;;2.92;100.00
7433;BME280;32233;49.500;7.764;2023-04-27T03:57:13;98622.25;;;3.08;100.00
7433;BME280;32233;49.500;7.764;2023-04-27T03:59:39;98621.13;;;3.11;98.84
7433;BME280;32233;49.500;7.764;2023-04-27T04:02:06;98626.16;;;2.77;100.00
7433;BME280;32233;49.500;7.764;2023-04-27T04:04:35;98620.69;;;2.52;100.00
7433;BME280;32233;49.500;7.764;2023-04-27T04:07:02;98618.06;;;2.52;100.00
7433;BME280;32233;49.500;7.764;2023-04-27T04:09:28;98620.78;;;2.60;100.00
7433;BME280;32233;49.500;7.764;2023-04-27T04:11:55;98618.31;;;2.59;100.00
7433;BME280;32233;49.500;7.764;2023-04-27T04:14:23;98622.81;;;2.66;100.00
7433;BME280;32233;49.500;7.764;2023-04-27T04:16:50;98627.59;;;2.71;100.00
7433;BME280;32233;49.500;7.764;2023-04-27T04:19:19;98627.44;;;2.72;100.00
7433;BME280;32233;49.500;7.764;2023-04-27T04:21:47;98622.44;;;2.61;100.00
7433;BME280;32233;49.500;7.764;2023-04-27T04:24:14;98622.84;;;2.57;100.00
7433;BME280;32233;49.500;7.764;2023-04-27T04:26:41;98625.88;;;2.62;100.00
7433;BME280;32233;49.500;7.764;2023-04-27T04:29:08;98624.09;;;2.53;100.00
7433;BME280;32233;49.500;7.764;2023-04-27T04:31:36;98620.78;;;2.60;100.00
7433;BME280;32233;49.500;7.764;2023-04-27T04:34:03;98624.06;;;2.62;100.00
7433;BME280;32233;49.500;7.764;2023-04-27T04:36:30;98620.81;;;2.78;100.00
7433;BME280;32233;49.500;7.764;2023-04-27T04:38:57;98616.63;;;2.85;100.00
7433;BME280;32233;49.500;7.764;2023-04-27T04:41:24;98622.31;;;2.98;100.00
7433;BME280;32233;49.500;7.764;2023-04-27T04:43:51;98623.28;;;3.15;100.00
7433;BME280;32233;49.500;7.764;2023-04-27T04:46:18;98626.94;;;3.05;100.00
7433;BME280;32233;49.500;7.764;2023-04-27T04:48:45;98618.13;;;3.06;100.00
7433;BME280;32233;49.500;7.764;2023-04-27T04:51:12;98617.63;;;3.20;100.00
7433;BME280;32233;49.500;7.764;2023-04-27T04:53:39;98627.03;;;3.31;100.00
7433;BME280;32233;49.500;7.764;2023-04-27T04:56:10;98632.81;;;3.42;100.00
7433;BME280;32233;49.500;7.764;2023-04-27T04:58:36;98625.25;;;3.57;99.29
7433;BME280;32233;49.500;7.764;2023-04-27T05:01:04;98630.03;;;3.62;98.04
7433;BME280;32233;49.500;7.764;2023-04-27T05:03:31;98636.28;;;3.69;97.21
7433;BME280;32233;49.500;7.764;2023-04-27T05:05:58;98640.13;;;3.57;98.51
7433;BME280;32233;49.500;7.764;2023-04-27T05:08:24;98635.00;;;3.73;97.23
7433;BME280;32233;49.500;7.764;2023-04-27T05:10:51;98635.53;;;3.77;96.58
7433;BME280;32233;49.500;7.764;2023-04-27T05:13:19;98638.56;;;3.64;96.53
7433;BME280;32233;49.500;7.764;2023-04-27T05:15:46;98646.41;;;3.46;99.23
7433;BME280;32233;49.500;7.764;2023-04-27T05:18:12;98642.75;;;3.83;97.66
7433;BME280;32233;49.500;7.764;2023-04-27T05:20:39;98642.91;;;3.81;96.42
7433;BME280;32233;49.500;7.764;2023-04-27T05:23:06;98648.75;;;3.75;98.00
7433;BME280;32233;49.500;7.764;2023-04-27T05:25:33;98655.06;;;3.90;98.22
7433;BME280;32233;49.500;7.764;2023-04-27T05:28:00;98661.16;;;3.73;96.99
7433;BME280;32233;49.500;7.764;2023-04-27T05:30:26;98661.09;;;3.91;96.31
7433;BME280;32233;49.500;7.764;2023-04-27T05:32:53;98661.72;;;4.11;95.65
7433;BME280;32233;49.500;7.764;2023-04-27T05:35:20;98662.88;;;4.08;95.48
7433;BME280;32233;49.500;7.764;2023-04-27T05:37:46;98673.56;;;4.23;94.10
7433;BME280;32233;49.500;7.764;2023-04-27T05:40:14;98670.00;;;4.32;94.26
7433;BME280;32233;49.500;7.764;2023-04-27T05:42:41;98680.13;;;4.53;93.35
7433;BME280;32233;49.500;7.764;2023-04-27T05:45:07;98672.75;;;4.99;89.96
7433;BME280;32233;49.500;7.764;2023-04-27T05:47:34;98681.19;;;5.60;86.03
7433;BME280;32233;49.500;7.764;2023-04-27T05:50:00;98676.44;;;5.55;85.42
7433;BME280;32233;49.500;7.764;2023-04-27T05:52:27;98682.00;;;5.60;83.56
7433;BME280;32233;49.500;7.764;2023-04-27T05:54:56;98677.56;;;5.69;86.38
7433;BME280;32233;49.500;7.764;2023-04-27T05:57:24;98668.72;;;5.62;85.85
7433;BME280;32233;49.500;7.764;2023-04-27T05:59:51;98672.25;;;6.34;94.89
7433;BME280;32233;49.500;7.764;2023-04-27T06:02:18;98678.53;;;5.35;88.34
7433;BME280;32233;49.500;7.764;2023-04-27T06:04:45;98671.31;;;5.29;89.59
7433;BME280;32233;49.500;7.764;2023-04-27T06:07:13;98687.28;;;4.93;91.48
7433;BME280;32233;49.500;7.764;2023-04-27T06:09:41;98688.53;;;5.32;90.80
7433;BME280;32233;49.500;7.764;2023-04-27T06:12:08;98683.81;;;5.60;87.61
7433;BME280;32233;49.500;7.764;2023-04-27T06:14:35;98681.16;;;5.43;88.24
7433;BME280;32233;49.500;7.764;2023-04-27T06:17:03;98686.06;;;5.63;87.96
7433;BME280;32233;49.500;7.764;2023-04-27T06:19:29;98683.81;;;5.60;87.58
7433;BME280;32233;49.500;7.764;2023-04-27T06:21:56;98687.72;;;5.47;89.74
7433;BME280;32233;49.500;7.764;2023-04-27T06:24:23;98684.75;;;5.91;85.70
7433;BME280;32233;49.500;7.764;2023-04-27T06:26:49;98683.13;;;5.99;84.40
7433;BME280;32233;49.500;7.764;2023-04-27T06:29:16;98682.44;;;6.29;83.58
7433;BME280;32233;49.500;7.764;2023-04-27T06:31:43;98686.94;;;6.99;79.74
7433;BME280;32233;49.500;7.764;2023-04-27T06:34:09;98678.53;;;8.10;73.13
7433;BME280;32233;49.500;7.764;2023-04-27T06:36:36;98680.13;;;8.79;69.78
7433;BME280;32233;49.500;7.764;2023-04-27T06:39:02;98685.06;;;9.03;66.23
7433;BME280;32233;49.500;7.764;2023-04-27T06:41:29;98685.19;;;9.53;62.42
7433;BME280;32233;49.500;7.764;2023-04-27T06:43:55;98683.53;;;9.30;60.53
7433;BME280;32233;49.500;7.764;2023-04-27T06:46:24;98690.41;;;9.96;57.43
7433;BME280;32233;49.500;7.764;2023-04-27T06:48:51;98691.56;;;11.32;54.58
7433;BME280;32233;49.500;7.764;2023-04-27T06:51:18;98691.22;;;11.75;53.86
7433;BME280;32233;49.500;7.764;2023-04-27T06:53:44;98692.06;;;11.95;51.29
7433;BME280;32233;49.500;7.764;2023-04-27T06:56:11;98688.53;;;10.80;54.48
7433;BME280;32233;49.500;7.764;2023-04-27T06:58:37;98685.94;;;10.52;55.68
7433;BME280;32233;49.500;7.764;2023-04-27T07:01:04;98693.66;;;10.47;55.55
7433;BME280;32233;49.500;7.764;2023-04-27T07:03:33;98689.06;;;9.78;58.59
7433;BME280;32233;49.500;7.764;2023-04-27T07:06:00;98681.69;;;10.23;56.39
7433;BME280;32233;49.500;7.764;2023-04-27T07:08:27;98675.94;;;10.41;57.61
7433;BME280;32233;49.500;7.764;2023-04-27T07:10:53;98673.50;;;11.62;52.95
7433;BME280;32233;49.500;7.764;2023-04-27T07:13:21;98669.22;;;11.74;52.56
7433;BME280;32233;49.500;7.764;2023-04-27T07:15:53;98666.56;;;11.54;51.99
7433;BME280;32233;49.500;7.764;2023-04-27T07:18:20;98667.63;;;11.93;52.04
7433;BME280;32233;49.500;7.764;2023-04-27T07:20:46;98664.00;;;12.79;50.77
7433;BME280;32233;49.500;7.764;2023-04-27T07:23:13;98668.28;;;13.18;48.20
7433;BME280;32233;49.500;7.764;2023-04-27T07:25:39;98666.69;;;14.49;45.34
7433;BME280;32233;49.500;7.764;2023-04-27T07:28:06;98660.59;;;14.67;44.86
7433;BME280;32233;49.500;7.764;2023-04-27T07:30:32;98668.63;;;15.27;43.29
7433;BME280;32233;49.500;7.764;2023-04-27T07:33:01;98653.72;;;16.62;40.87
7433;BME280;32233;49.500;7.764;2023-04-27T07:35:28;98667.31;;;16.37;40.37
7433;BME280;32233;49.500;7.764;2023-04-27T07:37:55;98642.59;;;17.05;37.74
7433;BME280;32233;49.500;7.764;2023-04-27T07:40:21;98651.50;;;18.01;36.06
7433;BME280;32233;49.500;7.764;2023-04-27T07:42:49;98645.25;;;17.79;35.70
7433;BME280;32233;49.500;7.764;2023-04-27T07:45:16;98645.19;;;17.62;33.89
7433;BME280;32233;49.500;7.764;2023-04-27T07:47:43;98644.00;;;18.03;34.14
7433;BME280;32233;49.500;7.764;2023-04-27T07:50:10;98634.19;;;19.14;33.10
7433;BME280;32233;49.500;7.764;2023-04-27T07:52:36;98638.47;;;18.88;32.80
7433;BME280;32233;49.500;7.764;2023-04-27T07:55:03;98633.03;;;19.91;32.37
7433;BME280;32233;49.500;7.764;2023-04-27T07:57:30;98632.63;;;19.18;32.68
7433;BME280;32233;49.500;7.764;2023-04-27T07:59:56;98638.88;;;19.23;31.50
7433;BME280;32233;49.500;7.764;2023-04-27T08:02:25;98656.81;;;17.68;32.01
7433;BME280;32233;49.500;7.764;2023-04-27T08:04:55;98640.69;;;19.72;32.13
7433;BME280;32233;49.500;7.764;2023-04-27T08:07:22;98633.91;;;19.96;30.71
7433;BME280;32233;49.500;7.764;2023-04-27T08:09:50;98636.19;;;19.83;30.49
7433;BME280;32233;49.500;7.764;2023-04-27T08:12:17;98635.50;;;18.06;33.66
7433;BME280;32233;49.500;7.764;2023-04-27T08:14:45;98637.50;;;17.49;34.31
7433;BME280;32233;49.500;7.764;2023-04-27T08:17:12;98638.81;;;17.18;35.25
7433;BME280;32233;49.500;7.764;2023-04-27T08:19:39;98646.00;;;16.13;37.44
7433;BME280;32233;49.500;7.764;2023-04-27T08:22:06;98641.91;;;17.26;33.46
7433;BME280;32233;49.500;7.764;2023-04-27T08:24:33;98642.25;;;16.49;36.69
7433;BME280;32233;49.500;7.764;2023-04-27T08:27:00;98645.06;;;17.23;35.48
7433;BME280;32233;49.500;7.764;2023-04-27T08:29:26;98645.09;;;16.71;37.00
7433;BME280;32233;49.500;7.764;2023-04-27T08:31:58;98633.63;;;16.71;36.72
7433;BME280;32233;49.500;7.764;2023-04-27T08:34:25;98640.75;;;16.53;37.46
7433;BME280;32233;49.500;7.764;2023-04-27T08:36:52;98638.06;;;16.53;37.41
7433;BME280;32233;49.500;7.764;2023-04-27T08:39:19;98637.09;;;16.83;37.49
7433;BME280;32233;49.500;7.764;2023-04-27T08:41:46;98641.31;;;16.44;37.06
7433;BME280;32233;49.500;7.764;2023-04-27T08:44:13;98640.19;;;15.93;37.96
7433;BME280;32233;49.500;7.764;2023-04-27T08:46:39;98638.81;;;16.89;36.19
7433;BME280;32233;49.500;7.764;2023-04-27T08:49:06;98640.63;;;16.37;37.03
7433;BME280;32233;49.500;7.764;2023-04-27T08:51:33;98636.22;;;16.42;38.37
7433;BME280;32233;49.500;7.764;2023-04-27T08:53:59;98633.44;;;17.46;36.18
7433;BME280;32233;49.500;7.764;2023-04-27T08:56:28;98636.44;;;17.04;36.18
7433;BME280;32233;49.500;7.764;2023-04-27T08:58:55;98643.09;;;16.26;37.33
7433;BME280;32233;49.500;7.764;2023-04-27T09:01:23;98635.00;;;16.85;36.30
7433;BME280;32233;49.500;7.764;2023-04-27T09:03:58;98631.06;;;16.76;35.55
7433;BME280;32233;49.500;7.764;2023-04-27T09:06:30;98634.59;;;17.50;36.19
7433;BME280;32233;49.500;7.764;2023-04-27T09:08:58;98628.28;;;17.11;36.39
7433;BME280;32233;49.500;7.764;2023-04-27T09:11:30;98629.06;;;16.19;38.93
7433;BME280;32233;49.500;7.764;2023-04-27T09:13:58;98633.13;;;15.98;39.69
7433;BME280;32233;49.500;7.764;2023-04-27T09:16:26;98626.47;;;16.48;36.72
7433;BME280;32233;49.500;7.764;2023-04-27T09:18:55;98622.09;;;16.30;37.41
7433;BME280;32233;49.500;7.764;2023-04-27T09:21:24;98616.03;;;16.46;38.49
7433;BME280;32233;49.500;7.764;2023-04-27T09:23:51;98618.81;;;17.03;37.77
7433;BME280;32233;49.500;7.764;2023-04-27T09:26:22;98616.22;;;17.54;37.52
7433;BME280;32233;49.500;7.764;2023-04-27T09:28:51;98616.53;;;17.41;37.41
7433;BME280;32233;49.500;7.764;2023-04-27T09:31:18;98621.31;;;16.81;35.26
7433;BME280;32233;49.500;7.764;2023-04-27T09:33:53;98617.47;;;16.77;35.68
7433;BME280;32233;49.500;7.764;2023-04-27T09:36:21;98616.72;;;16.94;35.43
7433;BME280;32233;49.500;7.764;2023-04-27T09:38:49;98614.09;;;17.39;36.13
7433;BME280;32233;49.500;7.764;2023-04-27T09:41:17;98619.13;;;16.67;35.56
7433;BME280;32233;49.500;7.764;2023-04-27T09:43:44;98620.19;;;17.68;34.94
7433;BME280;32233;49.500;7.764;2023-04-27T09:46:13;98611.19;;;18.08;35.56
7433;BME280;32233;49.500;7.764;2023-04-27T09:48:41;98609.78;;;18.22;34.60
7433;BME280;32233;49.500;7.764;2023-04-27T09:51:08;98608.81;;;17.27;33.42
7433;BME280;32233;49.500;7.764;2023-04-27T09:53:45;98615.28;;;17.77;32.15
7433;BME280;32233;49.500;7.764;2023-04-27T09:56:39;98607.63;;;17.52;34.21
7433;BME280;32233;49.500;7.764;2023-04-27T10:01:56;98604.22;;;18.07;40.17
7433;BME280;32233;49.500;7.764;2023-04-27T10:07:16;98608.25;;;18.26;35.11
7433;BME280;32233;49.500;7.764;2023-04-27T10:09:48;98603.91;;;18.03;36.38
7433;BME280;32233;49.500;7.764;2023-04-27T10:12:20;98600.53;;;17.74;36.87
7433;BME280;32233;49.500;7.764;2023-04-27T10:17:16;98601.88;;;17.60;33.87
7433;BME280;32233;49.500;7.764;2023-04-27T10:19:55;98610.88;;;18.04;35.08
7433;BME280;32233;49.500;7.764;2023-04-27T10:22:35;98601.88;;;18.11;33.31
7433;BME280;32233;49.500;7.764;2023-04-27T10:27:42;98608.75;;;18.67;33.32
7433;BME280;32233;49.500;7.764;2023-04-27T10:30:10;98602.78;;;19.04;36.94
7433;BME280;32233;49.500;7.764;2023-04-27T10:32:37;98602.06;;;18.87;34.34
7433;BME280;32233;49.500;7.764;2023-04-27T10:35:04;98604.47;;;18.66;36.11
7433;BME280;32233;49.500;7.764;2023-04-27T10:37:40;98607.44;;;18.48;33.94
7433;BME280;32233;49.500;7.764;2023-04-27T10:40:11;98608.38;;;17.98;33.56
7433;BME280;32233;49.500;7.764;2023-04-27T10:42:45;98602.09;;;18.26;36.28
7433;BME280;32233;49.500;7.764;2023-04-27T10:45:25;98588.16;;;18.68;39.18
7433;BME280;32233;49.500;7.764;2023-04-27T10:47:58;98588.16;;;18.68;35.97
7433;BME280;32233;49.500;7.764;2023-04-27T10:50:26;98580.19;;;18.73;37.74
7433;BME280;32233;49.500;7.764;2023-04-27T10:52:53;98583.59;;;18.68;37.52
7433;BME280;32233;49.500;7.764;2023-04-27T10:55:21;98577.31;;;18.36;40.67
7433;BME280;32233;49.500;7.764;2023-04-27T10:57:49;98578.97;;;17.47;37.06
7433;BME280;32233;49.500;7.764;2023-04-27T11:00:38;98581.16;;;16.76;36.04
7433;BME280;32233;49.500;7.764;2023-04-27T11:03:18;98576.53;;;17.96;40.42
7433;BME280;32233;49.500;7.764;2023-04-27T11:05:48;98576.47;;;18.74;34.58
7433;BME280;32233;49.500;7.764;2023-04-27T11:08:24;98575.66;;;19.60;35.29
7433;BME280;32233;49.500;7.764;2023-04-27T11:10:50;98558.03;;;19.64;31.68
7433;BME280;32233;49.500;7.764;2023-04-27T11:13:22;98556.03;;;19.86;35.00
7433;BME280;32233;49.500;7.764;2023-04-27T11:15:54;98553.38;;;20.44;34.43
7433;BME280;32233;49.500;7.764;2023-04-27T11:18:23;98557.75;;;20.08;36.96
7433;BME280;32233;49.500;7.764;2023-04-27T11:20:53;98555.34;;;19.64;36.19
7433;BME280;32233;49.500;7.764;2023-04-27T11:23:26;98547.09;;;20.18;34.92
7433;BME280;32233;49.500;7.764;2023-04-27T11:25:55;98548.78;;;20.44;33.29
7433;BME280;32233;49.500;7.764;2023-04-27T11:28:22;98526.97;;;21.14;32.98
7433;BME280;32233;49.500;7.764;2023-04-27T11:30:56;98530.66;;;20.72;31.72
7433;BME280;32233;49.500;7.764;2023-04-27T11:33:23;98529.72;;;20.36;34.37
7433;BME280;32233;49.500;7.764;2023-04-27T11:35:50;98527.88;;;20.41;35.54
7433;BME280;32233;49.500;7.764;2023-04-27T11:38:18;98527.63;;;19.90;32.61
7433;BME280;32233;49.500;7.764;2023-04-27T11:40:46;98530.81;;;19.50;31.47
7433;BME280;32233;49.500;7.764;2023-04-27T11:43:13;98534.50;;;20.28;36.12
7433;BME280;32233;49.500;7.764;2023-04-27T11:45:43;98527.72;;;20.84;34.17
7433;BME280;32233;49.500;7.764;2023-04-27T11:48:14;98529.78;;;19.88;32.38
7433;BME280;32233;49.500;7.764;2023-04-27T11:50:50;98534.47;;;20.18;37.81
7433;BME280;32233;49.500;7.764;2023-04-27T11:53:31;98525.59;;;20.96;32.96
7433;BME280;32233;49.500;7.764;2023-04-27T11:56:09;98516.97;;;20.73;30.65
7433;BME280;32233;49.500;7.764;2023-04-27T11:58:37;98523.34;;;19.52;33.60
7433;BME280;32233;49.500;7.764;2023-04-27T12:01:05;98513.56;;;20.25;33.21
7433;BME280;32233;49.500;7.764;2023-04-27T12:03:33;98500.66;;;21.36;33.42
7433;BME280;32233;49.500;7.764;2023-04-27T12:06:00;98515.69;;;21.42;32.99
7433;BME280;32233;49.500;7.764;2023-04-27T12:08:30;98508.16;;;21.14;32.41
7433;BME280;32233;49.500;7.764;2023-04-27T12:10:56;98509.16;;;20.67;34.04
7433;BME280;32233;49.500;7.764;2023-04-27T12:13:23;98495.31;;;20.27;32.96
7433;BME280;32233;49.500;7.764;2023-04-27T12:15:49;98498.84;;;20.38;32.81
7433;BME280;32233;49.500;7.764;2023-04-27T12:18:16;98502.25;;;21.07;31.57
7433;BME280;32233;49.500;7.764;2023-04-27T12:20:43;98508.44;;;21.53;29.96
7433;BME280;32233;49.500;7.764;2023-04-27T12:23:09;98505.69;;;20.82;30.44
7433;BME280;32233;49.500;7.764;2023-04-27T12:25:36;98505.13;;;19.96;33.36
7433;BME280;32233;49.500;7.764;2023-04-27T12:28:03;98500.88;;;20.00;34.86
7433;BME280;32233;49.500;7.764;2023-04-27T12:30:29;98491.63;;;20.44;31.13
7433;BME280;32233;49.500;7.764;2023-04-27T12:32:56;98492.16;;;20.46;32.81
7433;BME280;32233;49.500;7.764;2023-04-27T12:35:24;98485.25;;;20.55;33.37
7433;BME280;32233;49.500;7.764;2023-04-27T12:37:51;98486.28;;;20.49;35.08
7433;BME280;32233;49.500;7.764;2023-04-27T12:40:18;98477.31;;;20.23;33.66
7433;BME280;32233;49.500;7.764;2023-04-27T12:42:44;98479.47;;;20.21;35.10
7433;BME280;32233;49.500;7.764;2023-04-27T12:45:11;98469.16;;;20.81;32.54
7433;BME280;32233;49.500;7.764;2023-04-27T12:47:37;98467.50;;;21.82;31.56
7433;BME280;32233;49.500;7.764;2023-04-27T12:50:25;98465.22;;;22.19;30.64
7433;BME280;32233;49.500;7.764;2023-04-27T12:52:52;98467.38;;;22.07;29.32
7433;BME280;32233;49.500;7.764;2023-04-27T12:55:18;98462.78;;;22.23;31.79
7433;BME280;32233;49.500;7.764;2023-04-27T12:57:59;98456.97;;;22.89;30.07
7433;BME280;32233;49.500;7.764;2023-04-27T13:00:26;98462.34;;;22.99;30.25
7433;BME280;32233;49.500;7.764;2023-04-27T13:02:53;98461.47;;;23.04;30.18
7433;BME280;32233;49.500;7.764;2023-04-27T13:05:19;98466.72;;;22.46;30.08
7433;BME280;32233;49.500;7.764;2023-04-27T13:07:47;98465.91;;;22.85;29.51
7433;BME280;32233;49.500;7.764;2023-04-27T13:10:14;98462.78;;;23.12;28.59
7433;BME280;32233;49.500;7.764;2023-04-27T13:12:40;98462.88;;;22.96;28.82
7433;BME280;32233;49.500;7.764;2023-04-27T13:15:08;98458.19;;;23.12;30.48
7433;BME280;32233;49.500;7.764;2023-04-27T13:17:34;98458.28;;;22.97;29.79
7433;BME280;32233;49.500;7.764;2023-04-27T13:20:03;98459.88;;;23.61;29.93
7433;BME280;32233;49.500;7.764;2023-04-27T13:22:29;98459.63;;;24.30;27.06
7433;BME280;32233;49.500;7.764;2023-04-27T13:24:56;98467.66;;;23.92;27.10
7433;BME280;32233;49.500;7.764;2023-04-27T13:27:23;98454.44;;;23.08;27.54